sensor_id;sensor_type;location;lat;lon;timestamp;temperature;humidity
55777;DHT22;54079;44.540;18.784;2022-07-22T00:00:36;22.40;57.70
55777;DHT22;54079;44.540;18.784;2022-07-22T00:03:02;22.40;57.70
55777;DHT22;54079;44.540;18.784;2022-07-22T00:05:28;22.30;57.90
55777;DHT22;54079;44.540;18.784;2022-07-22T00:07:54;22.00;58.20
55777;DHT22;54079;44.540;18.784;2022-07-22T00:10:20;22.10;57.60
55777;DHT22;54079;44.540;18.784;2022-07-22T00:12:46;22.30;57.60
55777;DHT22;54079;44.540;18.784;2022-07-22T00:15:12;22.10;58.70
55777;DHT22;54079;44.540;18.784;2022-07-22T00:17:38;22.20;57.90
55777;DHT22;54079;44.540;18.784;2022-07-22T00:20:07;22.10;58.70
55777;DHT22;54079;44.540;18.784;2022-07-22T00:22:33;22.10;58.40
55777;DHT22;54079;44.540;18.784;2022-07-22T00:24:59;22.00;58.50
55777;DHT22;54079;44.540;18.784;2022-07-22T00:27:25;22.10;58.50
55777;DHT22;54079;44.540;18.784;2022-07-22T00:29:51;22.00;59.60
55777;DHT22;54079;44.540;18.784;2022-07-22T00:32:17;21.90;59.50
55777;DHT22;54079;44.540;18.784;2022-07-22T00:34:43;21.90;60.00
55777;DHT22;54079;44.540;18.784;2022-07-22T00:37:09;21.90;59.60
55777;DHT22;54079;44.540;18.784;2022-07-22T00:39:35;21.90;59.60
55777;DHT22;54079;44.540;18.784;2022-07-22T00:42:01;22.00;59.10
55777;DHT22;54079;44.540;18.784;2022-07-22T00:44:27;22.00;59.60
55777;DHT22;54079;44.540;18.784;2022-07-22T00:46:53;22.00;58.60
55777;DHT22;54079;44.540;18.784;2022-07-22T00:49:19;22.10;57.90
55777;DHT22;54079;44.540;18.784;2022-07-22T00:51:46;22.00;57.90
55777;DHT22;54079;44.540;18.784;2022-07-22T00:54:12;22.00;58.10
55777;DHT22;54079;44.540;18.784;2022-07-22T00:56:38;22.00;58.10
55777;DHT22;54079;44.540;18.784;2022-07-22T00:59:08;21.80;59.00
55777;DHT22;54079;44.540;18.784;2022-07-22T01:01:34;21.90;58.70
55777;DHT22;54079;44.540;18.784;2022-07-22T01:04:00;21.80;58.90
55777;DHT22;54079;44.540;18.784;2022-07-22T01:06:30;21.60;59.80
55777;DHT22;54079;44.540;18.784;2022-07-22T01:08:57;21.30;60.80
55777;DHT22;54079;44.540;18.784;2022-07-22T01:11:23;21.20;61.20
55777;DHT22;54079;44.540;18.784;2022-07-22T01:13:50;21.30;61.00
55777;DHT22;54079;44.540;18.784;2022-07-22T01:16:17;21.20;60.80
55777;DHT22;54079;44.540;18.784;2022-07-22T01:18:44;21.10;61.40
55777;DHT22;54079;44.540;18.784;2022-07-22T01:21:10;21.20;60.90
55777;DHT22;54079;44.540;18.784;2022-07-22T01:23:38;21.20;61.20
55777;DHT22;54079;44.540;18.784;2022-07-22T01:26:05;21.10;61.70
55777;DHT22;54079;44.540;18.784;2022-07-22T01:28:31;21.10;62.00
55777;DHT22;54079;44.540;18.784;2022-07-22T01:30:57;21.30;61.10
55777;DHT22;54079;44.540;18.784;2022-07-22T01:33:23;21.40;60.60
55777;DHT22;54079;44.540;18.784;2022-07-22T01:35:50;21.40;60.00
55777;DHT22;54079;44.540;18.784;2022-07-22T01:38:16;21.50;59.40
55777;DHT22;54079;44.540;18.784;2022-07-22T01:40:43;21.40;60.10
55777;DHT22;54079;44.540;18.784;2022-07-22T01:43:10;21.40;60.00
55777;DHT22;54079;44.540;18.784;2022-07-22T01:45:36;21.40;60.10
55777;DHT22;54079;44.540;18.784;2022-07-22T01:48:03;21.50;59.60
55777;DHT22;54079;44.540;18.784;2022-07-22T01:50:29;21.60;59.10
55777;DHT22;54079;44.540;18.784;2022-07-22T01:52:55;21.60;58.90
55777;DHT22;54079;44.540;18.784;2022-07-22T01:55:21;21.70;58.70
55777;DHT22;54079;44.540;18.784;2022-07-22T01:57:47;21.60;58.70
55777;DHT22;54079;44.540;18.784;2022-07-22T02:00:14;21.60;59.00
55777;DHT22;54079;44.540;18.784;2022-07-22T02:02:40;21.50;59.60
55777;DHT22;54079;44.540;18.784;2022-07-22T02:05:06;21.40;59.90
55777;DHT22;54079;44.540;18.784;2022-07-22T02:07:33;21.50;60.20
55777;DHT22;54079;44.540;18.784;2022-07-22T02:09:59;21.30;60.20
55777;DHT22;54079;44.540;18.784;2022-07-22T02:12:26;21.30;60.30
55777;DHT22;54079;44.540;18.784;2022-07-22T02:14:52;21.30;60.00
55777;DHT22;54079;44.540;18.784;2022-07-22T02:17:18;20.80;61.60
55777;DHT22;54079;44.540;18.784;2022-07-22T02:19:43;20.80;62.40
55777;DHT22;54079;44.540;18.784;2022-07-22T02:22:09;20.80;62.60
55777;DHT22;54079;44.540;18.784;2022-07-22T02:24:35;20.70;62.50
55777;DHT22;54079;44.540;18.784;2022-07-22T02:27:01;20.70;62.00
55777;DHT22;54079;44.540;18.784;2022-07-22T02:29:30;20.60;63.00
55777;DHT22;54079;44.540;18.784;2022-07-22T02:31:56;20.80;62.20
55777;DHT22;54079;44.540;18.784;2022-07-22T02:34:22;20.90;62.00
55777;DHT22;54079;44.540;18.784;2022-07-22T02:36:48;21.00;62.80
55777;DHT22;54079;44.540;18.784;2022-07-22T02:39:14;21.10;61.80
55777;DHT22;54079;44.540;18.784;2022-07-22T02:41:40;21.00;62.00
55777;DHT22;54079;44.540;18.784;2022-07-22T02:44:06;21.00;61.90
55777;DHT22;54079;44.540;18.784;2022-07-22T02:46:32;21.00;62.10
55777;DHT22;54079;44.540;18.784;2022-07-22T02:48:58;21.00;61.20
55777;DHT22;54079;44.540;18.784;2022-07-22T02:51:24;20.90;60.90
55777;DHT22;54079;44.540;18.784;2022-07-22T02:53:50;20.80;61.80
55777;DHT22;54079;44.540;18.784;2022-07-22T02:56:16;20.70;62.30
55777;DHT22;54079;44.540;18.784;2022-07-22T02:58:42;20.80;62.50
55777;DHT22;54079;44.540;18.784;2022-07-22T03:01:08;20.50;62.60
55777;DHT22;54079;44.540;18.784;2022-07-22T03:03:34;20.60;62.60
55777;DHT22;54079;44.540;18.784;2022-07-22T03:06:00;20.70;62.20
55777;DHT22;54079;44.540;18.784;2022-07-22T03:08:27;20.70;61.90
55777;DHT22;54079;44.540;18.784;2022-07-22T03:10:54;20.70;62.60
55777;DHT22;54079;44.540;18.784;2022-07-22T03:13:19;20.70;62.50
55777;DHT22;54079;44.540;18.784;2022-07-22T03:15:45;20.70;62.20
55777;DHT22;54079;44.540;18.784;2022-07-22T03:18:12;20.80;63.30
55777;DHT22;54079;44.540;18.784;2022-07-22T03:20:37;20.80;62.50
55777;DHT22;54079;44.540;18.784;2022-07-22T03:23:04;20.90;62.60
55777;DHT22;54079;44.540;18.784;2022-07-22T03:25:29;20.90;61.10
55777;DHT22;54079;44.540;18.784;2022-07-22T03:27:57;21.00;61.30
55777;DHT22;54079;44.540;18.784;2022-07-22T03:30:24;20.90;62.50
55777;DHT22;54079;44.540;18.784;2022-07-22T03:32:50;21.00;62.10
55777;DHT22;54079;44.540;18.784;2022-07-22T03:35:16;20.90;62.30
55777;DHT22;54079;44.540;18.784;2022-07-22T03:37:42;20.90;61.80
55777;DHT22;54079;44.540;18.784;2022-07-22T03:40:09;20.80;62.50
55777;DHT22;54079;44.540;18.784;2022-07-22T03:42:35;20.90;62.60
55777;DHT22;54079;44.540;18.784;2022-07-22T03:45:08;20.70;63.00
55777;DHT22;54079;44.540;18.784;2022-07-22T03:47:34;20.90;62.50
55777;DHT22;54079;44.540;18.784;2022-07-22T03:50:00;21.00;61.60
55777;DHT22;54079;44.540;18.784;2022-07-22T03:52:28;21.20;61.00
55777;DHT22;54079;44.540;18.784;2022-07-22T03:54:54;21.20;60.90
55777;DHT22;54079;44.540;18.784;2022-07-22T03:57:20;21.00;62.10
55777;DHT22;54079;44.540;18.784;2022-07-22T03:59:47;21.10;62.20
55777;DHT22;54079;44.540;18.784;2022-07-22T04:02:13;21.40;61.40
55777;DHT22;54079;44.540;18.784;2022-07-22T04:04:39;21.50;61.60
55777;DHT22;54079;44.540;18.784;2022-07-22T04:07:05;21.50;61.60
55777;DHT22;54079;44.540;18.784;2022-07-22T04:09:31;21.50;61.20
55777;DHT22;54079;44.540;18.784;2022-07-22T04:11:56;21.60;60.40
55777;DHT22;54079;44.540;18.784;2022-07-22T04:14:22;21.50;62.30
55777;DHT22;54079;44.540;18.784;2022-07-22T04:16:48;21.70;61.60
55777;DHT22;54079;44.540;18.784;2022-07-22T04:19:14;21.70;61.80
55777;DHT22;54079;44.540;18.784;2022-07-22T04:21:41;21.70;62.30
55777;DHT22;54079;44.540;18.784;2022-07-22T04:24:07;21.90;61.80
55777;DHT22;54079;44.540;18.784;2022-07-22T04:26:33;22.00;61.10
55777;DHT22;54079;44.540;18.784;2022-07-22T04:29:05;22.10;61.80
55777;DHT22;54079;44.540;18.784;2022-07-22T04:31:31;22.10;61.80
55777;DHT22;54079;44.540;18.784;2022-07-22T04:33:58;22.90;60.10
55777;DHT22;54079;44.540;18.784;2022-07-22T04:36:24;23.70;58.40
55777;DHT22;54079;44.540;18.784;2022-07-22T04:38:50;24.00;57.10
55777;DHT22;54079;44.540;18.784;2022-07-22T04:41:16;24.30;55.50
55777;DHT22;54079;44.540;18.784;2022-07-22T04:43:42;25.70;54.90
55777;DHT22;54079;44.540;18.784;2022-07-22T04:46:08;28.00;51.40
55777;DHT22;54079;44.540;18.784;2022-07-22T04:48:34;29.90;48.30
55777;DHT22;54079;44.540;18.784;2022-07-22T04:51:01;31.20;45.80
55777;DHT22;54079;44.540;18.784;2022-07-22T04:53:28;32.10;44.10
55777;DHT22;54079;44.540;18.784;2022-07-22T04:55:54;33.20;43.40
55777;DHT22;54079;44.540;18.784;2022-07-22T04:58:20;33.80;42.20
55777;DHT22;54079;44.540;18.784;2022-07-22T05:00:47;34.50;41.70
55777;DHT22;54079;44.540;18.784;2022-07-22T05:03:14;35.00;40.60
55777;DHT22;54079;44.540;18.784;2022-07-22T05:05:40;35.90;40.00
55777;DHT22;54079;44.540;18.784;2022-07-22T05:08:06;36.60;39.60
55777;DHT22;54079;44.540;18.784;2022-07-22T05:10:32;37.10;39.00
55777;DHT22;54079;44.540;18.784;2022-07-22T05:12:58;37.60;37.70
55777;DHT22;54079;44.540;18.784;2022-07-22T05:15:24;38.20;37.70
55777;DHT22;54079;44.540;18.784;2022-07-22T05:17:50;38.10;37.20
55777;DHT22;54079;44.540;18.784;2022-07-22T05:20:17;38.60;37.60
55777;DHT22;54079;44.540;18.784;2022-07-22T05:22:43;39.00;37.00
55777;DHT22;54079;44.540;18.784;2022-07-22T05:25:09;39.70;36.50
55777;DHT22;54079;44.540;18.784;2022-07-22T05:27:35;39.80;36.60
55777;DHT22;54079;44.540;18.784;2022-07-22T05:30:01;40.60;36.20
55777;DHT22;54079;44.540;18.784;2022-07-22T05:32:27;41.40;35.90
55777;DHT22;54079;44.540;18.784;2022-07-22T05:34:53;42.20;35.50
55777;DHT22;54079;44.540;18.784;2022-07-22T05:37:20;42.50;35.50
55777;DHT22;54079;44.540;18.784;2022-07-22T05:39:46;43.10;35.10
55777;DHT22;54079;44.540;18.784;2022-07-22T05:42:12;43.50;34.80
55777;DHT22;54079;44.540;18.784;2022-07-22T05:44:38;43.80;34.00
55777;DHT22;54079;44.540;18.784;2022-07-22T05:47:04;44.10;32.90
55777;DHT22;54079;44.540;18.784;2022-07-22T05:49:29;44.50;32.50
55777;DHT22;54079;44.540;18.784;2022-07-22T05:51:55;44.50;33.20
55777;DHT22;54079;44.540;18.784;2022-07-22T05:54:26;44.90;32.60
55777;DHT22;54079;44.540;18.784;2022-07-22T05:56:52;45.10;32.80
55777;DHT22;54079;44.540;18.784;2022-07-22T05:59:18;45.80;32.50
55777;DHT22;54079;44.540;18.784;2022-07-22T06:01:44;46.50;32.20
55777;DHT22;54079;44.540;18.784;2022-07-22T06:04:10;47.00;31.50
55777;DHT22;54079;44.540;18.784;2022-07-22T06:06:36;47.20;31.90
55777;DHT22;54079;44.540;18.784;2022-07-22T06:09:02;47.60;32.30
55777;DHT22;54079;44.540;18.784;2022-07-22T06:11:27;47.30;32.00
55777;DHT22;54079;44.540;18.784;2022-07-22T06:13:53;47.60;31.90
55777;DHT22;54079;44.540;18.784;2022-07-22T06:16:19;47.70;30.50
55777;DHT22;54079;44.540;18.784;2022-07-22T06:18:45;47.90;31.10
55777;DHT22;54079;44.540;18.784;2022-07-22T06:21:11;48.00;29.60
55777;DHT22;54079;44.540;18.784;2022-07-22T06:23:37;48.40;30.00
55777;DHT22;54079;44.540;18.784;2022-07-22T06:26:03;49.00;30.10
55777;DHT22;54079;44.540;18.784;2022-07-22T06:28:29;49.70;29.70
55777;DHT22;54079;44.540;18.784;2022-07-22T06:30:55;50.30;30.00
55777;DHT22;54079;44.540;18.784;2022-07-22T06:33:21;50.80;29.50
55777;DHT22;54079;44.540;18.784;2022-07-22T06:35:47;50.90;29.60
55777;DHT22;54079;44.540;18.784;2022-07-22T06:38:13;51.10;29.30
55777;DHT22;54079;44.540;18.784;2022-07-22T06:40:39;51.30;29.10
55777;DHT22;54079;44.540;18.784;2022-07-22T06:43:05;51.50;29.80
55777;DHT22;54079;44.540;18.784;2022-07-22T06:45:32;52.10;29.10
55777;DHT22;54079;44.540;18.784;2022-07-22T06:47:58;52.30;29.40
55777;DHT22;54079;44.540;18.784;2022-07-22T06:50:24;52.50;29.10
55777;DHT22;54079;44.540;18.784;2022-07-22T06:52:50;52.80;28.90
55777;DHT22;54079;44.540;18.784;2022-07-22T06:55:16;52.40;29.30
55777;DHT22;54079;44.540;18.784;2022-07-22T06:57:42;52.70;29.50
55777;DHT22;54079;44.540;18.784;2022-07-22T07:00:08;52.80;29.20
55777;DHT22;54079;44.540;18.784;2022-07-22T07:02:35;53.20;28.80
55777;DHT22;54079;44.540;18.784;2022-07-22T07:05:02;52.90;28.90
55777;DHT22;54079;44.540;18.784;2022-07-22T07:07:28;53.30;29.00
55777;DHT22;54079;44.540;18.784;2022-07-22T07:09:53;53.50;28.80
55777;DHT22;54079;44.540;18.784;2022-07-22T07:12:19;53.20;28.80
55777;DHT22;54079;44.540;18.784;2022-07-22T07:14:45;53.60;28.70
55777;DHT22;54079;44.540;18.784;2022-07-22T07:17:11;53.60;28.30
55777;DHT22;54079;44.540;18.784;2022-07-22T07:19:37;53.70;28.60
55777;DHT22;54079;44.540;18.784;2022-07-22T07:22:03;54.20;28.40
55777;DHT22;54079;44.540;18.784;2022-07-22T07:24:29;54.40;28.30
55777;DHT22;54079;44.540;18.784;2022-07-22T07:26:55;54.60;28.20
55777;DHT22;54079;44.540;18.784;2022-07-22T07:29:21;54.60;28.00
55777;DHT22;54079;44.540;18.784;2022-07-22T07:31:48;54.80;28.10
55777;DHT22;54079;44.540;18.784;2022-07-22T07:34:14;54.90;27.80
55777;DHT22;54079;44.540;18.784;2022-07-22T07:36:40;55.00;28.00
55777;DHT22;54079;44.540;18.784;2022-07-22T07:39:06;54.90;28.00
55777;DHT22;54079;44.540;18.784;2022-07-22T07:41:32;55.30;28.00
55777;DHT22;54079;44.540;18.784;2022-07-22T07:43:59;55.60;27.80
55777;DHT22;54079;44.540;18.784;2022-07-22T07:46:25;54.60;27.90
55777;DHT22;54079;44.540;18.784;2022-07-22T07:48:51;55.20;28.10
55777;DHT22;54079;44.540;18.784;2022-07-22T07:51:17;55.10;27.90
55777;DHT22;54079;44.540;18.784;2022-07-22T07:53:43;55.50;27.70
55777;DHT22;54079;44.540;18.784;2022-07-22T07:56:09;55.20;27.70
55777;DHT22;54079;44.540;18.784;2022-07-22T07:58:35;55.20;27.80
55777;DHT22;54079;44.540;18.784;2022-07-22T08:01:01;55.30;27.80
55777;DHT22;54079;44.540;18.784;2022-07-22T08:03:27;55.30;27.80
55777;DHT22;54079;44.540;18.784;2022-07-22T08:05:53;55.00;27.80
55777;DHT22;54079;44.540;18.784;2022-07-22T08:08:19;54.20;27.90
55777;DHT22;54079;44.540;18.784;2022-07-22T08:10:45;54.30;27.90
55777;DHT22;54079;44.540;18.784;2022-07-22T08:13:11;54.40;28.00
55777;DHT22;54079;44.540;18.784;2022-07-22T08:15:37;54.40;28.00
55777;DHT22;54079;44.540;18.784;2022-07-22T08:18:04;54.50;27.90
55777;DHT22;54079;44.540;18.784;2022-07-22T08:20:30;54.60;27.90
55777;DHT22;54079;44.540;18.784;2022-07-22T08:22:56;54.60;27.90
55777;DHT22;54079;44.540;18.784;2022-07-22T08:25:23;54.20;27.70
55777;DHT22;54079;44.540;18.784;2022-07-22T08:27:49;54.90;27.70
55777;DHT22;54079;44.540;18.784;2022-07-22T08:30:16;55.00;27.50
55777;DHT22;54079;44.540;18.784;2022-07-22T08:32:42;54.80;27.50
55777;DHT22;54079;44.540;18.784;2022-07-22T08:35:09;54.40;27.70
55777;DHT22;54079;44.540;18.784;2022-07-22T08:37:35;54.90;27.70
55777;DHT22;54079;44.540;18.784;2022-07-22T08:40:01;55.10;27.30
55777;DHT22;54079;44.540;18.784;2022-07-22T08:42:27;55.30;27.50
55777;DHT22;54079;44.540;18.784;2022-07-22T08:44:54;55.60;27.30
55777;DHT22;54079;44.540;18.784;2022-07-22T08:47:25;55.40;27.30
55777;DHT22;54079;44.540;18.784;2022-07-22T08:49:51;55.30;27.20
55777;DHT22;54079;44.540;18.784;2022-07-22T08:52:17;55.20;27.20
55777;DHT22;54079;44.540;18.784;2022-07-22T08:54:43;54.90;27.00
55777;DHT22;54079;44.540;18.784;2022-07-22T08:57:09;54.90;27.20
55777;DHT22;54079;44.540;18.784;2022-07-22T08:59:57;54.90;27.10
55777;DHT22;54079;44.540;18.784;2022-07-22T09:02:24;54.40;27.30
55777;DHT22;54079;44.540;18.784;2022-07-22T09:04:56;53.70;27.30
55777;DHT22;54079;44.540;18.784;2022-07-22T09:07:31;53.10;27.60
55777;DHT22;54079;44.540;18.784;2022-07-22T09:09:59;52.10;27.70
55777;DHT22;54079;44.540;18.784;2022-07-22T09:12:26;50.50;28.10
55777;DHT22;54079;44.540;18.784;2022-07-22T09:14:56;48.90;28.60
55777;DHT22;54079;44.540;18.784;2022-07-22T09:19:49;44.80;29.20
55777;DHT22;54079;44.540;18.784;2022-07-22T09:22:37;43.50;31.00
55777;DHT22;54079;44.540;18.784;2022-07-22T09:25:26;42.30;31.40
55777;DHT22;54079;44.540;18.784;2022-07-22T09:27:56;41.20;32.30
55777;DHT22;54079;44.540;18.784;2022-07-22T09:30:51;40.40;32.90
55777;DHT22;54079;44.540;18.784;2022-07-22T09:33:19;39.80;33.50
55777;DHT22;54079;44.540;18.784;2022-07-22T09:35:47;39.00;33.80
55777;DHT22;54079;44.540;18.784;2022-07-22T09:38:15;38.50;34.50
55777;DHT22;54079;44.540;18.784;2022-07-22T09:40:45;38.30;34.60
55777;DHT22;54079;44.540;18.784;2022-07-22T09:43:15;38.30;34.70
55777;DHT22;54079;44.540;18.784;2022-07-22T09:45:50;38.20;34.80
55777;DHT22;54079;44.540;18.784;2022-07-22T09:48:18;37.90;34.70
55777;DHT22;54079;44.540;18.784;2022-07-22T09:50:46;37.70;35.00
55777;DHT22;54079;44.540;18.784;2022-07-22T09:53:12;37.60;35.20
55777;DHT22;54079;44.540;18.784;2022-07-22T09:55:40;37.60;35.40
55777;DHT22;54079;44.540;18.784;2022-07-22T09:58:06;37.40;35.30
55777;DHT22;54079;44.540;18.784;2022-07-22T10:00:34;37.40;35.40
55777;DHT22;54079;44.540;18.784;2022-07-22T10:03:03;37.20;35.60
55777;DHT22;54079;44.540;18.784;2022-07-22T10:05:37;37.20;35.80
55777;DHT22;54079;44.540;18.784;2022-07-22T10:08:04;37.20;36.00
55777;DHT22;54079;44.540;18.784;2022-07-22T10:10:32;37.00;35.90
55777;DHT22;54079;44.540;18.784;2022-07-22T10:13:00;36.90;36.60
55777;DHT22;54079;44.540;18.784;2022-07-22T10:15:27;36.80;36.20
55777;DHT22;54079;44.540;18.784;2022-07-22T10:17:59;36.80;36.60
55777;DHT22;54079;44.540;18.784;2022-07-22T10:20:27;36.80;36.60
55777;DHT22;54079;44.540;18.784;2022-07-22T10:25:26;36.40;35.90
55777;DHT22;54079;44.540;18.784;2022-07-22T10:28:04;36.50;36.90
55777;DHT22;54079;44.540;18.784;2022-07-22T10:30:36;36.60;37.00
55777;DHT22;54079;44.540;18.784;2022-07-22T10:33:11;36.60;36.90
55777;DHT22;54079;44.540;18.784;2022-07-22T10:38:11;36.60;36.80
55777;DHT22;54079;44.540;18.784;2022-07-22T10:43:13;36.80;36.80
55777;DHT22;54079;44.540;18.784;2022-07-22T10:45:45;36.70;36.90
55777;DHT22;54079;44.540;18.784;2022-07-22T10:48:43;36.80;36.30
55777;DHT22;54079;44.540;18.784;2022-07-22T10:51:17;36.90;36.20
55777;DHT22;54079;44.540;18.784;2022-07-22T10:59:10;37.10;36.00
55777;DHT22;54079;44.540;18.784;2022-07-22T11:01:38;37.00;36.10
55777;DHT22;54079;44.540;18.784;2022-07-22T11:06:42;37.10;35.40
55777;DHT22;54079;44.540;18.784;2022-07-22T11:09:12;37.20;35.30
55777;DHT22;54079;44.540;18.784;2022-07-22T11:11:42;37.00;34.90
55777;DHT22;54079;44.540;18.784;2022-07-22T11:14:34;37.10;33.90
55777;DHT22;54079;44.540;18.784;2022-07-22T11:17:12;37.10;34.40
55777;DHT22;54079;44.540;18.784;2022-07-22T11:19:41;37.10;34.90
55777;DHT22;54079;44.540;18.784;2022-07-22T11:22:09;37.10;34.20
55777;DHT22;54079;44.540;18.784;2022-07-22T11:24:36;36.90;34.80
55777;DHT22;54079;44.540;18.784;2022-07-22T11:27:04;36.70;33.90
55777;DHT22;54079;44.540;18.784;2022-07-22T11:29:33;36.60;34.20
55777;DHT22;54079;44.540;18.784;2022-07-22T11:32:05;36.60;34.30
55777;DHT22;54079;44.540;18.784;2022-07-22T11:34:31;36.70;33.20
55777;DHT22;54079;44.540;18.784;2022-07-22T11:36:57;36.80;33.50
55777;DHT22;54079;44.540;18.784;2022-07-22T11:39:28;36.70;33.60
55777;DHT22;54079;44.540;18.784;2022-07-22T11:41:57;36.70;32.60
55777;DHT22;54079;44.540;18.784;2022-07-22T11:44:26;36.80;33.30
55777;DHT22;54079;44.540;18.784;2022-07-22T11:46:52;36.80;32.90
55777;DHT22;54079;44.540;18.784;2022-07-22T11:49:20;36.90;33.40
55777;DHT22;54079;44.540;18.784;2022-07-22T11:51:47;36.80;32.80
55777;DHT22;54079;44.540;18.784;2022-07-22T11:54:13;37.00;33.20
55777;DHT22;54079;44.540;18.784;2022-07-22T11:56:40;37.00;33.30
55777;DHT22;54079;44.540;18.784;2022-07-22T11:59:07;36.90;33.30
55777;DHT22;54079;44.540;18.784;2022-07-22T12:01:36;36.90;33.20
55777;DHT22;54079;44.540;18.784;2022-07-22T12:04:05;37.00;33.90
55777;DHT22;54079;44.540;18.784;2022-07-22T12:06:32;37.00;33.70
55777;DHT22;54079;44.540;18.784;2022-07-22T12:09:07;37.00;33.40
55777;DHT22;54079;44.540;18.784;2022-07-22T12:11:35;36.80;33.00
55777;DHT22;54079;44.540;18.784;2022-07-22T12:14:07;36.70;33.60
55777;DHT22;54079;44.540;18.784;2022-07-22T12:16:34;36.70;33.80
55777;DHT22;54079;44.540;18.784;2022-07-22T12:19:06;36.70;33.30
55777;DHT22;54079;44.540;18.784;2022-07-22T12:21:34;36.70;34.00
55777;DHT22;54079;44.540;18.784;2022-07-22T12:24:07;36.80;33.50
55777;DHT22;54079;44.540;18.784;2022-07-22T12:26:47;36.70;33.20
55777;DHT22;54079;44.540;18.784;2022-07-22T12:29:22;36.60;33.20
55777;DHT22;54079;44.540;18.784;2022-07-22T12:31:55;36.70;34.20
55777;DHT22;54079;44.540;18.784;2022-07-22T12:34:39;36.60;32.20
55777;DHT22;54079;44.540;18.784;2022-07-22T12:39:54;36.40;32.80
55777;DHT22;54079;44.540;18.784;2022-07-22T12:42:20;36.40;33.00
55777;DHT22;54079;44.540;18.784;2022-07-22T12:45:09;36.40;32.70
55777;DHT22;54079;44.540;18.784;2022-07-22T12:47:46;36.50;33.00
55777;DHT22;54079;44.540;18.784;2022-07-22T12:52:44;36.60;33.20
55777;DHT22;54079;44.540;18.784;2022-07-22T12:55:10;36.50;32.70
55777;DHT22;54079;44.540;18.784;2022-07-22T12:57:37;36.50;32.80
55777;DHT22;54079;44.540;18.784;2022-07-22T13:00:03;36.40;33.10
55777;DHT22;54079;44.540;18.784;2022-07-22T13:02:29;36.30;33.20
55777;DHT22;54079;44.540;18.784;2022-07-22T13:04:55;36.30;32.90
55777;DHT22;54079;44.540;18.784;2022-07-22T13:07:21;36.20;32.60
55777;DHT22;54079;44.540;18.784;2022-07-22T13:09:47;36.30;33.40
55777;DHT22;54079;44.540;18.784;2022-07-22T13:12:13;36.40;34.10
55777;DHT22;54079;44.540;18.784;2022-07-22T13:14:39;36.20;33.30
55777;DHT22;54079;44.540;18.784;2022-07-22T13:17:05;36.30;33.70
55777;DHT22;54079;44.540;18.784;2022-07-22T13:19:31;36.40;34.20
55777;DHT22;54079;44.540;18.784;2022-07-22T13:21:57;36.60;34.30
55777;DHT22;54079;44.540;18.784;2022-07-22T13:24:23;36.40;34.10
55777;DHT22;54079;44.540;18.784;2022-07-22T13:26:49;36.30;33.60
55777;DHT22;54079;44.540;18.784;2022-07-22T13:29:16;36.40;34.30
55777;DHT22;54079;44.540;18.784;2022-07-22T13:31:41;36.40;33.80
55777;DHT22;54079;44.540;18.784;2022-07-22T13:34:07;36.50;33.80
55777;DHT22;54079;44.540;18.784;2022-07-22T13:36:34;36.50;33.50
55777;DHT22;54079;44.540;18.784;2022-07-22T13:39:00;36.40;33.60
55777;DHT22;54079;44.540;18.784;2022-07-22T13:41:28;36.40;34.00
55777;DHT22;54079;44.540;18.784;2022-07-22T13:43:54;36.40;34.50
55777;DHT22;54079;44.540;18.784;2022-07-22T13:46:20;36.40;34.60
55777;DHT22;54079;44.540;18.784;2022-07-22T13:48:46;36.50;34.60
55777;DHT22;54079;44.540;18.784;2022-07-22T13:51:11;36.40;34.90
55777;DHT22;54079;44.540;18.784;2022-07-22T13:53:38;36.40;35.00
55777;DHT22;54079;44.540;18.784;2022-07-22T13:56:04;36.30;34.60
55777;DHT22;54079;44.540;18.784;2022-07-22T13:58:31;36.30;34.90
55777;DHT22;54079;44.540;18.784;2022-07-22T14:00:57;36.30;34.60
55777;DHT22;54079;44.540;18.784;2022-07-22T14:03:23;36.30;34.50
55777;DHT22;54079;44.540;18.784;2022-07-22T14:05:49;36.30;33.90
55777;DHT22;54079;44.540;18.784;2022-07-22T14:08:15;36.30;34.20
55777;DHT22;54079;44.540;18.784;2022-07-22T14:10:41;36.30;34.80
55777;DHT22;54079;44.540;18.784;2022-07-22T14:13:07;36.30;34.70
55777;DHT22;54079;44.540;18.784;2022-07-22T14:15:33;36.20;34.20
55777;DHT22;54079;44.540;18.784;2022-07-22T14:17:59;36.30;34.90
55777;DHT22;54079;44.540;18.784;2022-07-22T14:20:25;36.30;34.90
55777;DHT22;54079;44.540;18.784;2022-07-22T14:22:51;36.30;34.50
55777;DHT22;54079;44.540;18.784;2022-07-22T14:25:17;36.30;34.30
55777;DHT22;54079;44.540;18.784;2022-07-22T14:27:43;36.30;34.80
55777;DHT22;54079;44.540;18.784;2022-07-22T14:30:09;36.30;35.00
55777;DHT22;54079;44.540;18.784;2022-07-22T14:32:35;36.30;34.80
55777;DHT22;54079;44.540;18.784;2022-07-22T14:35:01;36.20;34.80
55777;DHT22;54079;44.540;18.784;2022-07-22T14:37:27;36.20;34.60
55777;DHT22;54079;44.540;18.784;2022-07-22T14:39:54;36.20;35.00
55777;DHT22;54079;44.540;18.784;2022-07-22T14:42:20;36.20;35.40
55777;DHT22;54079;44.540;18.784;2022-07-22T14:44:46;36.20;34.60
55777;DHT22;54079;44.540;18.784;2022-07-22T14:47:11;36.20;35.00
55777;DHT22;54079;44.540;18.784;2022-07-22T14:49:37;36.10;35.00
55777;DHT22;54079;44.540;18.784;2022-07-22T14:52:03;36.20;35.10
55777;DHT22;54079;44.540;18.784;2022-07-22T14:54:29;36.20;35.10
55777;DHT22;54079;44.540;18.784;2022-07-22T14:56:55;36.20;35.50
55777;DHT22;54079;44.540;18.784;2022-07-22T14:59:21;36.20;35.20
55777;DHT22;54079;44.540;18.784;2022-07-22T15:01:51;36.10;34.50
55777;DHT22;54079;44.540;18.784;2022-07-22T15:04:17;36.20;35.10
55777;DHT22;54079;44.540;18.784;2022-07-22T15:06:44;36.20;35.20
55777;DHT22;54079;44.540;18.784;2022-07-22T15:09:10;36.10;34.50
55777;DHT22;54079;44.540;18.784;2022-07-22T15:11:36;36.10;35.30
55777;DHT22;54079;44.540;18.784;2022-07-22T15:14:02;36.10;35.10
55777;DHT22;54079;44.540;18.784;2022-07-22T15:16:28;36.10;35.00
55777;DHT22;54079;44.540;18.784;2022-07-22T15:18:54;36.00;34.90
55777;DHT22;54079;44.540;18.784;2022-07-22T15:21:20;36.00;34.50
55777;DHT22;54079;44.540;18.784;2022-07-22T15:23:46;36.00;35.30
55777;DHT22;54079;44.540;18.784;2022-07-22T15:26:12;36.00;34.80
55777;DHT22;54079;44.540;18.784;2022-07-22T15:28:38;36.00;35.20
55777;DHT22;54079;44.540;18.784;2022-07-22T15:31:05;35.90;35.40
55777;DHT22;54079;44.540;18.784;2022-07-22T15:33:32;35.90;35.30
55777;DHT22;54079;44.540;18.784;2022-07-22T15:35:58;35.90;35.10
55777;DHT22;54079;44.540;18.784;2022-07-22T15:38:24;35.80;34.70